Time,TemperatureF,DewpointF,PressureIn,WindDirection,WindDirectionDegrees,WindSpeedMPH,WindSpeedGustMPH,Humidity,HourlyPrecipIn,Conditions,Clouds,dailyrainin,SoftwareType,DateUTC
2013-04-22 00:05:00,-999.0,-99.9,30.38,North,-999,-999.0,-999.0,-999,-99.99,,,0.00,weatherlink.com 1.10,2013-04-22 08:05:00,
2013-04-22 00:20:00,-999.0,-99.9,30.38,North,-999,-999.0,-999.0,-999,-99.99,,,0.00,weatherlink.com 1.10,2013-04-22 08:20:00,
2013-04-22 00:35:00,-999.0,-99.9,30.38,North,-999,-999.0,-999.0,-999,-99.99,,,0.00,weatherlink.com 1.10,2013-04-22 08:35:00,
2013-04-22 00:50:00,-999.0,-99.9,30.38,North,-999,-999.0,-999.0,-999,-99.99,,,0.00,weatherlink.com 1.10,2013-04-22 08:50:00,
2013-04-22 01:05:00,-999.0,-99.9,30.38,North,-999,-999.0,-999.0,-999,-99.99,,,0.00,weatherlink.com 1.10,2013-04-22 09:05:00,
2013-04-22 01:20:00,-999.0,-99.9,30.39,North,-999,-999.0,-999.0,-999,-99.99,,,0.00,weatherlink.com 1.10,2013-04-22 09:20:00,
2013-04-22 01:35:00,-999.0,-99.9,30.39,North,-999,-999.0,-999.0,-999,-99.99,,,0.00,weatherlink.com 1.10,2013-04-22 09:35:00,
2013-04-22 01:50:00,-999.0,-99.9,30.39,North,-999,-999.0,-999.0,-999,-99.99,,,0.00,weatherlink.com 1.10,2013-04-22 09:50:00,
2013-04-22 02:05:00,-999.0,-99.9,30.40,North,-999,-999.0,-999.0,-999,-99.99,,,0.00,weatherlink.com 1.10,2013-04-22 10:05:00,
2013-04-22 02:21:00,-999.0,-99.9,30.40,North,-999,-999.0,-999.0,-999,-99.99,,,0.00,weatherlink.com 1.10,2013-04-22 10:21:00,
2013-04-22 02:36:00,-999.0,-99.9,30.40,North,-999,-999.0,-999.0,-999,-99.99,,,0.00,weatherlink.com 1.10,2013-04-22 10:36:00,
2013-04-22 02:51:00,-999.0,-99.9,30.40,North,-999,-999.0,-999.0,-999,-99.99,,,0.00,weatherlink.com 1.10,2013-04-22 10:51:00,
2013-04-22 03:06:00,-999.0,-99.9,30.40,North,-999,-999.0,-999.0,-999,-99.99,,,0.00,weatherlink.com 1.10,2013-04-22 11:06:00,
2013-04-22 03:21:00,-999.0,-99.9,30.40,North,-999,-999.0,-999.0,-999,-99.99,,,0.00,weatherlink.com 1.10,2013-04-22 11:21:00,
2013-04-22 03:36:00,-999.0,-99.9,30.40,North,-999,-999.0,-999.0,-999,-99.99,,,0.00,weatherlink.com 1.10,2013-04-22 11:36:00,
2013-04-22 03:51:00,-999.0,-99.9,30.41,North,-999,-999.0,-999.0,-999,-99.99,,,0.00,weatherlink.com 1.10,2013-04-22 11:51:00,
2013-04-22 04:06:00,-999.0,-99.9,30.41,North,-999,-999.0,-999.0,-999,-99.99,,,0.00,weatherlink.com 1.10,2013-04-22 12:06:00,
2013-04-22 04:21:00,-999.0,-99.9,30.41,North,-999,-999.0,-999.0,-999,-99.99,,,0.00,weatherlink.com 1.10,2013-04-22 12:21:00,
2013-04-22 04:36:00,-999.0,-99.9,30.41,North,-999,-999.0,-999.0,-999,-99.99,,,0.00,weatherlink.com 1.10,2013-04-22 12:36:00,
2013-04-22 04:51:00,-999.0,-99.9,30.42,North,-999,-999.0,-999.0,-999,-99.99,,,0.00,weatherlink.com 1.10,2013-04-22 12:51:00,
2013-04-22 05:06:00,-999.0,-99.9,30.42,North,-999,-999.0,-999.0,-999,-99.99,,,0.00,weatherlink.com 1.10,2013-04-22 13:06:00,
2013-04-22 05:21:00,-999.0,-99.9,30.43,North,-999,-999.0,-999.0,-999,-99.99,,,0.00,weatherlink.com 1.10,2013-04-22 13:21:00,
2013-04-22 05:36:00,-999.0,-99.9,30.43,North,-999,-999.0,-999.0,-999,-99.99,,,0.00,weatherlink.com 1.10,2013-04-22 13:36:00,
2013-04-22 05:52:00,-999.0,-99.9,30.43,North,-999,-999.0,-999.0,-999,-99.99,,,0.00,weatherlink.com 1.10,2013-04-22 13:52:00,
2013-04-22 06:07:00,-999.0,-99.9,30.43,North,-999,-999.0,-999.0,-999,-99.99,,,0.00,weatherlink.com 1.10,2013-04-22 14:07:00,
2013-04-22 06:22:00,-999.0,-99.9,30.43,North,-999,-999.0,-999.0,-999,-99.99,,,0.00,weatherlink.com 1.10,2013-04-22 14:22:00,
2013-04-22 06:37:00,-999.0,-99.9,30.43,North,-999,-999.0,-999.0,-999,-99.99,,,0.00,weatherlink.com 1.10,2013-04-22 14:37:00,
2013-04-22 06:52:00,-999.0,-99.9,30.43,North,-999,-999.0,-999.0,-999,-99.99,,,0.00,weatherlink.com 1.10,2013-04-22 14:52:00,
2013-04-22 07:07:00,-999.0,-99.9,30.44,North,-999,-999.0,-999.0,-999,-99.99,,,0.00,weatherlink.com 1.10,2013-04-22 15:07:00,
2013-04-22 07:22:00,-999.0,-99.9,30.45,North,-999,-999.0,-999.0,-999,-99.99,,,0.00,weatherlink.com 1.10,2013-04-22 15:22:00,
2013-04-22 07:37:00,-999.0,-99.9,30.45,North,-999,-999.0,-999.0,-999,-99.99,,,0.00,weatherlink.com 1.10,2013-04-22 15:37:00,
2013-04-22 07:52:00,-999.0,-99.9,30.45,North,-999,-999.0,-999.0,-999,-99.99,,,0.00,weatherlink.com 1.10,2013-04-22 15:52:00,
2013-04-22 08:07:00,-999.0,-99.9,30.46,North,-999,-999.0,-999.0,-999,-99.99,,,0.00,weatherlink.com 1.10,2013-04-22 16:07:00,
2013-04-22 08:22:00,-999.0,-99.9,30.46,North,-999,-999.0,-999.0,-999,-99.99,,,0.00,weatherlink.com 1.10,2013-04-22 16:22:00,
2013-04-22 08:37:00,-999.0,-99.9,30.46,North,-999,-999.0,-999.0,-999,-99.99,,,0.00,weatherlink.com 1.10,2013-04-22 16:37:00,
2013-04-22 08:52:00,-999.0,-99.9,30.46,North,-999,-999.0,-999.0,-999,-99.99,,,0.00,weatherlink.com 1.10,2013-04-22 16:52:00,
2013-04-22 09:08:00,-999.0,-99.9,30.43,North,-999,-999.0,-999.0,-999,-99.99,,,0.00,weatherlink.com 1.10,2013-04-22 17:08:00,
2013-04-22 09:23:00,-999.0,-99.9,30.43,North,-999,-999.0,-999.0,-999,-99.99,,,0.00,weatherlink.com 1.10,2013-04-22 17:23:00,
2013-04-22 09:38:00,-999.0,-99.9,30.43,North,-999,-999.0,-999.0,-999,-99.99,,,0.00,weatherlink.com 1.10,2013-04-22 17:38:00,
2013-04-22 09:53:00,-999.0,-99.9,30.44,North,-999,-999.0,-999.0,-999,-99.99,,,0.00,weatherlink.com 1.10,2013-04-22 17:53:00,
2013-04-22 10:08:00,-999.0,-99.9,30.44,North,-999,-999.0,-999.0,-999,-99.99,,,0.00,weatherlink.com 1.10,2013-04-22 18:08:00,
2013-04-22 10:23:00,-999.0,-99.9,30.44,North,-999,-999.0,-999.0,-999,-99.99,,,0.00,weatherlink.com 1.10,2013-04-22 18:23:00,
2013-04-22 10:38:00,-999.0,-99.9,30.44,North,-999,-999.0,-999.0,-999,-99.99,,,0.00,weatherlink.com 1.10,2013-04-22 18:38:00,
2013-04-22 10:53:00,-999.0,-99.9,30.44,North,-999,-999.0,-999.0,-999,-99.99,,,0.00,weatherlink.com 1.10,2013-04-22 18:53:00,
2013-04-22 11:08:00,-999.0,-99.9,30.44,North,-999,-999.0,-999.0,-999,-99.99,,,0.00,weatherlink.com 1.10,2013-04-22 19:08:00,
2013-04-22 11:23:00,-999.0,-99.9,30.44,North,-999,-999.0,-999.0,-999,-99.99,,,0.00,weatherlink.com 1.10,2013-04-22 19:23:00,
2013-04-22 11:38:00,-999.0,-99.9,30.44,North,-999,-999.0,-999.0,-999,-99.99,,,0.00,weatherlink.com 1.10,2013-04-22 19:38:00,
2013-04-22 11:53:00,-999.0,-99.9,30.44,North,-999,-999.0,-999.0,-999,-99.99,,,0.00,weatherlink.com 1.10,2013-04-22 19:53:00,
2013-04-22 12:08:00,-999.0,-99.9,30.44,North,-999,-999.0,-999.0,-999,-99.99,,,0.00,weatherlink.com 1.10,2013-04-22 20:08:00,
2013-04-22 12:23:00,-999.0,-99.9,30.44,North,-999,-999.0,-999.0,-999,-99.99,,,0.00,weatherlink.com 1.10,2013-04-22 20:23:00,
2013-04-22 12:39:00,37.0,18.0,30.48,North,360,0.0,-999.0,46,-99.99,,,0.00,weatherlink.com 1.10,2013-04-22 20:39:00,
2013-04-22 12:54:00,37.9,18.0,30.48,North,360,0.0,-999.0,45,-99.99,,,0.00,weatherlink.com 1.10,2013-04-22 20:54:00,
2013-04-22 13:09:00,38.9,17.0,30.48,North,360,0.0,-999.0,41,-99.99,,,0.00,weatherlink.com 1.10,2013-04-22 21:09:00,
2013-04-22 13:24:00,38.4,17.0,30.48,North,360,0.0,-999.0,42,-99.99,,,0.00,weatherlink.com 1.10,2013-04-22 21:24:00,
2013-04-22 13:39:00,39.2,18.0,30.48,North,360,0.0,-999.0,43,-99.99,,,0.00,weatherlink.com 1.10,2013-04-22 21:39:00,
2013-04-22 13:54:00,40.3,20.0,30.47,North,360,0.0,-999.0,45,-99.99,,,0.00,weatherlink.com 1.10,2013-04-22 21:54:00,
2013-04-22 14:09:00,40.8,19.0,30.47,North,360,0.0,-999.0,42,-99.99,,,0.00,weatherlink.com 1.10,2013-04-22 22:09:00,
2013-04-22 14:24:00,42.0,19.0,30.46,North,-999,0.0,-999.0,40,-99.99,,,0.00,weatherlink.com 1.10,2013-04-22 22:24:00,
2013-04-22 14:39:00,43.2,19.0,30.46,North,-999,0.0,-999.0,38,-99.99,,,0.00,weatherlink.com 1.10,2013-04-22 22:39:00,
2013-04-22 14:54:00,43.8,18.0,30.45,North,-999,0.0,-999.0,35,-99.99,,,0.00,weatherlink.com 1.10,2013-04-22 22:54:00,
2013-04-22 15:09:00,44.1,18.0,30.45,North,-999,0.0,-999.0,35,-99.99,,,0.00,weatherlink.com 1.10,2013-04-22 23:09:00,
2013-04-22 15:24:00,44.5,20.0,30.44,North,-999,0.0,-999.0,37,-99.99,,,0.00,weatherlink.com 1.10,2013-04-22 23:24:00,
2013-04-22 15:54:00,44.1,19.0,30.44,North,-999,0.0,-999.0,36,-99.99,,,0.00,weatherlink.com 1.10,2013-04-22 23:54:00,
2013-04-22 16:09:00,45.0,19.0,30.44,North,-999,0.0,-999.0,36,-99.99,,,0.00,weatherlink.com 1.10,2013-04-23 00:09:00,
2013-04-22 16:24:00,44.8,17.0,30.43,North,-999,0.0,-999.0,33,-99.99,,,0.00,weatherlink.com 1.10,2013-04-23 00:24:00,
2013-04-22 16:39:00,44.9,18.0,30.43,North,-999,0.0,-999.0,34,-99.99,,,0.00,weatherlink.com 1.10,2013-04-23 00:39:00,
2013-04-22 16:54:00,43.9,18.0,30.43,North,-999,0.0,-999.0,35,-99.99,,,0.00,weatherlink.com 1.10,2013-04-23 00:54:00,
2013-04-22 17:09:00,44.2,17.0,30.42,North,-999,0.0,-999.0,34,-99.99,,,0.00,weatherlink.com 1.10,2013-04-23 01:09:00,
2013-04-22 17:24:00,44.6,18.0,30.42,North,360,0.0,-999.0,34,-99.99,,,0.00,weatherlink.com 1.10,2013-04-23 01:24:00,
2013-04-22 17:39:00,44.1,20.0,30.42,North,360,0.0,-999.0,38,-99.99,,,0.00,weatherlink.com 1.10,2013-04-23 01:39:00,
2013-04-22 17:54:00,43.9,20.0,30.41,North,-999,0.0,-999.0,38,-99.99,,,0.00,weatherlink.com 1.10,2013-04-23 01:54:00,
2013-04-22 18:09:00,44.3,19.0,30.41,North,-999,0.0,-999.0,36,-99.99,,,0.00,weatherlink.com 1.10,2013-04-23 02:09:00,
2013-04-22 18:24:00,44.3,17.0,30.41,North,-999,0.0,-999.0,33,-99.99,,,0.00,weatherlink.com 1.10,2013-04-23 02:24:00,
2013-04-22 18:39:00,43.5,20.0,30.41,North,-999,0.0,-999.0,40,-99.99,,,0.00,weatherlink.com 1.10,2013-04-23 02:39:00,
2013-04-22 18:54:00,42.7,20.0,30.40,North,360,0.0,-999.0,41,-99.99,,,0.00,weatherlink.com 1.10,2013-04-23 02:54:00,
2013-04-22 19:09:00,43.1,19.0,30.40,North,360,0.0,-999.0,38,-99.99,,,0.00,weatherlink.com 1.10,2013-04-23 03:09:00,
2013-04-22 19:24:00,43.0,18.0,30.40,North,360,0.0,-999.0,37,-99.99,,,0.00,weatherlink.com 1.10,2013-04-23 03:24:00,
2013-04-22 19:39:00,42.6,20.0,30.39,North,-999,0.0,-999.0,40,-99.99,,,0.00,weatherlink.com 1.10,2013-04-23 03:39:00,
2013-04-22 19:54:00,42.3,19.0,30.39,North,-999,0.0,-999.0,40,-99.99,,,0.00,weatherlink.com 1.10,2013-04-23 03:54:00,
2013-04-22 20:09:00,41.5,20.0,30.39,North,-999,0.0,-999.0,42,-99.99,,,0.00,weatherlink.com 1.10,2013-04-23 04:09:00,
2013-04-22 20:24:00,41.1,19.0,30.40,North,-999,0.0,-999.0,41,-99.99,,,0.00,weatherlink.com 1.10,2013-04-23 04:24:00,
2013-04-22 20:39:00,41.0,18.0,30.40,North,360,0.0,-999.0,40,-99.99,,,0.00,weatherlink.com 1.10,2013-04-23 04:39:00,
2013-04-22 20:54:00,40.6,18.0,30.40,North,-999,0.0,-999.0,41,-99.99,,,0.00,weatherlink.com 1.10,2013-04-23 04:54:00,
2013-04-22 21:09:00,40.5,17.0,30.40,North,360,0.0,-999.0,39,-99.99,,,0.00,weatherlink.com 1.10,2013-04-23 05:09:00,
2013-04-22 21:24:00,40.2,17.0,30.40,North,-999,0.0,-999.0,39,-99.99,,,0.00,weatherlink.com 1.10,2013-04-23 05:24:00,
2013-04-22 21:39:00,-999.0,-99.9,30.37,North,-999,-999.0,-999.0,-999,-99.99,,,0.00,weatherlink.com 1.10,2013-04-23 05:39:00,
2013-04-22 21:54:00,-999.0,-99.9,30.37,North,-999,-999.0,-999.0,-999,-99.99,,,0.00,weatherlink.com 1.10,2013-04-23 05:54:00,
2013-04-22 22:10:00,-999.0,-99.9,30.37,North,-999,-999.0,-999.0,-999,-99.99,,,0.00,weatherlink.com 1.10,2013-04-23 06:10:00,
2013-04-22 22:25:00,-999.0,-99.9,30.37,North,-999,-999.0,-999.0,-999,-99.99,,,0.00,weatherlink.com 1.10,2013-04-23 06:25:00,
2013-04-22 22:40:00,-999.0,-99.9,30.37,North,-999,-999.0,-999.0,-999,-99.99,,,0.00,weatherlink.com 1.10,2013-04-23 06:40:00,
2013-04-22 22:55:00,-999.0,-99.9,30.37,North,-999,-999.0,-999.0,-999,-99.99,,,0.00,weatherlink.com 1.10,2013-04-23 06:55:00,
2013-04-22 23:10:00,-999.0,-99.9,30.38,North,-999,-999.0,-999.0,-999,-99.99,,,0.00,weatherlink.com 1.10,2013-04-23 07:10:00,
2013-04-22 23:25:00,-999.0,-99.9,30.37,North,-999,-999.0,-999.0,-999,-99.99,,,0.00,weatherlink.com 1.10,2013-04-23 07:25:00,
2013-04-22 23:40:00,-999.0,-99.9,30.37,North,-999,-999.0,-999.0,-999,-99.99,,,0.00,weatherlink.com 1.10,2013-04-23 07:40:00,
2013-04-22 23:55:00,-999.0,-99.9,30.38,North,-999,-999.0,-999.0,-999,-99.99,,,0.00,weatherlink.com 1.10,2013-04-23 07:55:00,